CTV736 WIII-WARR
Flight info
| Callsign | CTV736 |
|---|---|
| Flight time | 0h 59m |
| Altitude | 35000 |
| Route | CA T3 BA |
| Aircraft | A320/M-SDE3FGHIRWY/LB1 |
Departure
| Time | 2026-05-08 11:02 |
|---|---|
| Airport | Soekarno-Hatta International Airport (WIII) |
Arrival
| Time | 2026-05-08 12:01 |
|---|---|
| Airport | Juanda International Airport (WARR) |
| Time | Latitude | Longitude | Altitude | Speed | Heading |
|---|---|---|---|---|---|
| 2026-05-08 10:34 | -6.13090 | 106.65144 | 0 ft | 0 kts | 101° |
| 2026-05-08 10:50 | -6.13086 | 106.65123 | 14 ft | 4 kts | 101° |
| 2026-05-08 10:50 | -6.13081 | 106.65097 | 35 ft | 2 kts | 101° |
| 2026-05-08 10:50 | -6.13078 | 106.65074 | 36 ft | 4 kts | 79° |
| 2026-05-08 10:50 | -6.13088 | 106.65050 | 35 ft | 4 kts | 44° |
| 2026-05-08 10:51 | -6.13109 | 106.65038 | 35 ft | 4 kts | 352° |
| 2026-05-08 10:51 | -6.13129 | 106.65045 | 35 ft | 0 kts | 336° |
| 2026-05-08 10:54 | -6.13128 | 106.65044 | 36 ft | 1 kts | 336° |
| 2026-05-08 10:54 | -6.13101 | 106.65028 | 35 ft | 7 kts | 317° |
| 2026-05-08 10:55 | -6.13093 | 106.64983 | 38 ft | 8 kts | 259° |
| 2026-05-08 10:55 | -6.13116 | 106.64923 | 38 ft | 10 kts | 248° |
| 2026-05-08 10:55 | -6.13143 | 106.64859 | 36 ft | 8 kts | 238° |
| 2026-05-08 10:55 | -6.13196 | 106.64841 | 38 ft | 9 kts | 169° |
| 2026-05-08 10:56 | -6.13264 | 106.64868 | 38 ft | 12 kts | 158° |
| 2026-05-08 10:56 | -6.13348 | 106.64901 | 38 ft | 14 kts | 158° |
| 2026-05-08 10:56 | -6.13444 | 106.64939 | 38 ft | 16 kts | 158° |
| 2026-05-08 10:56 | -6.13532 | 106.64974 | 38 ft | 14 kts | 158° |
| 2026-05-08 10:57 | -6.13623 | 106.65010 | 38 ft | 11 kts | 158° |
| 2026-05-08 10:57 | -6.13703 | 106.65042 | 38 ft | 13 kts | 158° |
| 2026-05-08 10:57 | -6.13808 | 106.64996 | 39 ft | 12 kts | 248° |
| 2026-05-08 10:58 | -6.13843 | 106.64908 | 39 ft | 16 kts | 248° |
| 2026-05-08 10:58 | -6.13890 | 106.64791 | 37 ft | 20 kts | 248° |
| 2026-05-08 10:58 | -6.13942 | 106.64660 | 39 ft | 21 kts | 248° |
| 2026-05-08 10:58 | -6.13996 | 106.64524 | 39 ft | 22 kts | 248° |
| 2026-05-08 10:59 | -6.14048 | 106.64395 | 38 ft | 19 kts | 248° |
| 2026-05-08 10:59 | -6.14085 | 106.64320 | 38 ft | 8 kts | 228° |
| 2026-05-08 10:59 | -6.14116 | 106.64302 | 39 ft | 0 kts | 197° |
| 2026-05-08 11:00 | -6.14126 | 106.64300 | 40 ft | 3 kts | 191° |
| 2026-05-08 11:00 | -6.14157 | 106.64303 | 40 ft | 6 kts | 164° |
| 2026-05-08 11:00 | -6.14194 | 106.64333 | 40 ft | 8 kts | 126° |
| 2026-05-08 11:00 | -6.14221 | 106.64385 | 41 ft | 9 kts | 128° |
| 2026-05-08 11:01 | -6.14230 | 106.64425 | 41 ft | 7 kts | 73° |
| 2026-05-08 11:01 | -6.14168 | 106.64577 | 39 ft | 55 kts | 68° |
| 2026-05-08 11:01 | -6.13945 | 106.65137 | 41 ft | 114 kts | 68° |
| 2026-05-08 11:01 | -6.13586 | 106.66034 | 40 ft | 160 kts | 68° |
| 2026-05-08 11:02 | -6.13157 | 106.67134 | 450 ft | 168 kts | 68° |
| 2026-05-08 11:02 | -6.12273 | 106.69338 | 1692 ft | 173 kts | 66° |
| 2026-05-08 11:02 | -6.11783 | 106.70513 | 1961 ft | 193 kts | 66° |
| 2026-05-08 11:03 | -6.11256 | 106.71824 | 2263 ft | 212 kts | 66° |
| 2026-05-08 11:03 | -6.10695 | 106.73284 | 2522 ft | 237 kts | 72° |
| 2026-05-08 11:03 | -6.10505 | 106.75010 | 2909 ft | 260 kts | 89° |
| 2026-05-08 11:03 | -6.10480 | 106.76867 | 3579 ft | 270 kts | 89° |
| 2026-05-08 11:04 | -6.10443 | 106.78775 | 4402 ft | 274 kts | 89° |
| 2026-05-08 11:04 | -6.10398 | 106.80703 | 5233 ft | 278 kts | 88° |
| 2026-05-08 11:04 | -6.10348 | 106.82654 | 6048 ft | 281 kts | 88° |
| 2026-05-08 11:04 | -6.10298 | 106.84622 | 6874 ft | 282 kts | 88° |
| 2026-05-08 11:05 | -6.10495 | 106.86589 | 7656 ft | 286 kts | 104° |
| 2026-05-08 11:05 | -6.10994 | 106.88530 | 8441 ft | 288 kts | 104° |
| 2026-05-08 11:05 | -6.11501 | 106.90455 | 9189 ft | 290 kts | 105° |
| 2026-05-08 11:05 | -6.12025 | 106.92423 | 9927 ft | 293 kts | 105° |
| 2026-05-08 11:06 | -6.12559 | 106.94436 | 10390 ft | 307 kts | 105° |
| 2026-05-08 11:06 | -6.13126 | 106.96583 | 10565 ft | 328 kts | 105° |
| 2026-05-08 11:06 | -6.13720 | 106.98834 | 11062 ft | 336 kts | 105° |
| 2026-05-08 11:06 | -6.14320 | 107.01118 | 11681 ft | 340 kts | 105° |
| 2026-05-08 11:07 | -6.14927 | 107.03424 | 12311 ft | 343 kts | 104° |
| 2026-05-08 11:07 | -6.15526 | 107.05757 | 12939 ft | 346 kts | 104° |
| 2026-05-08 11:07 | -6.16114 | 107.08110 | 13541 ft | 349 kts | 104° |
| 2026-05-08 11:07 | -6.16703 | 107.10481 | 14138 ft | 351 kts | 104° |
| 2026-05-08 11:08 | -6.17297 | 107.12873 | 14735 ft | 354 kts | 104° |
| 2026-05-08 11:08 | -6.17896 | 107.15281 | 15302 ft | 357 kts | 104° |
| 2026-05-08 11:08 | -6.18502 | 107.17707 | 15868 ft | 359 kts | 104° |
| 2026-05-08 11:08 | -6.19113 | 107.20150 | 16412 ft | 362 kts | 104° |
| 2026-05-08 11:09 | -6.19729 | 107.22610 | 16958 ft | 364 kts | 104° |
| 2026-05-08 11:09 | -6.20349 | 107.25087 | 17487 ft | 367 kts | 104° |
| 2026-05-08 11:09 | -6.20973 | 107.27586 | 17987 ft | 370 kts | 104° |
| 2026-05-08 11:09 | -6.21596 | 107.30078 | 18451 ft | 374 kts | 104° |
| 2026-05-08 11:10 | -6.22231 | 107.32623 | 18933 ft | 378 kts | 104° |
| 2026-05-08 11:10 | -6.22873 | 107.35197 | 19403 ft | 381 kts | 104° |
| 2026-05-08 11:10 | -6.23522 | 107.37793 | 19887 ft | 385 kts | 104° |
| 2026-05-08 11:10 | -6.24175 | 107.40410 | 20343 ft | 388 kts | 104° |
| 2026-05-08 11:11 | -6.24837 | 107.43053 | 20805 ft | 391 kts | 104° |
| 2026-05-08 11:11 | -6.25503 | 107.45716 | 21249 ft | 395 kts | 104° |
| 2026-05-08 11:11 | -6.26173 | 107.48404 | 21696 ft | 398 kts | 104° |
| 2026-05-08 11:11 | -6.26848 | 107.51114 | 22138 ft | 401 kts | 104° |
| 2026-05-08 11:12 | -6.27527 | 107.53846 | 22564 ft | 405 kts | 104° |
| 2026-05-08 11:12 | -6.28213 | 107.56600 | 22981 ft | 408 kts | 104° |
| 2026-05-08 11:12 | -6.28904 | 107.59377 | 23395 ft | 411 kts | 104° |
| 2026-05-08 11:12 | -6.29600 | 107.62174 | 23787 ft | 414 kts | 104° |
| 2026-05-08 11:13 | -6.30303 | 107.64991 | 24169 ft | 417 kts | 104° |
| 2026-05-08 11:13 | -6.31008 | 107.67823 | 24541 ft | 420 kts | 104° |
| 2026-05-08 11:13 | -6.31716 | 107.70681 | 24911 ft | 422 kts | 104° |
| 2026-05-08 11:13 | -6.32428 | 107.73548 | 25273 ft | 424 kts | 104° |
| 2026-05-08 11:14 | -6.33146 | 107.76434 | 25629 ft | 427 kts | 104° |
| 2026-05-08 11:14 | -6.33870 | 107.79331 | 25986 ft | 428 kts | 104° |
| 2026-05-08 11:14 | -6.34597 | 107.82243 | 26331 ft | 430 kts | 104° |
| 2026-05-08 11:14 | -6.35325 | 107.85165 | 26647 ft | 432 kts | 104° |
| 2026-05-08 11:15 | -6.36053 | 107.88104 | 26951 ft | 434 kts | 104° |
| 2026-05-08 11:15 | -6.36786 | 107.91059 | 27256 ft | 436 kts | 104° |
| 2026-05-08 11:15 | -6.37523 | 107.94020 | 27548 ft | 438 kts | 104° |
| 2026-05-08 11:15 | -6.38264 | 107.97000 | 27833 ft | 440 kts | 104° |
| 2026-05-08 11:16 | -6.39006 | 107.99994 | 28112 ft | 442 kts | 104° |
| 2026-05-08 11:16 | -6.39740 | 108.02959 | 28388 ft | 444 kts | 104° |
| 2026-05-08 11:16 | -6.40489 | 108.05981 | 28670 ft | 446 kts | 104° |
| 2026-05-08 11:16 | -6.41242 | 108.09013 | 28970 ft | 448 kts | 104° |
| 2026-05-08 11:17 | -6.41997 | 108.12057 | 29237 ft | 450 kts | 103° |
| 2026-05-08 11:17 | -6.42755 | 108.15117 | 29505 ft | 452 kts | 103° |
| 2026-05-08 11:17 | -6.43516 | 108.18187 | 29768 ft | 454 kts | 103° |
| 2026-05-08 11:17 | -6.44283 | 108.21272 | 30029 ft | 456 kts | 103° |
| 2026-05-08 11:18 | -6.45052 | 108.24371 | 30277 ft | 458 kts | 103° |
| 2026-05-08 11:18 | -6.45829 | 108.27486 | 30519 ft | 460 kts | 103° |
| 2026-05-08 11:18 | -6.46608 | 108.30601 | 30868 ft | 459 kts | 103° |
| 2026-05-08 11:18 | -6.47378 | 108.33709 | 31233 ft | 458 kts | 103° |
| 2026-05-08 11:19 | -6.48145 | 108.36813 | 31597 ft | 457 kts | 103° |
| 2026-05-08 11:19 | -6.48909 | 108.39913 | 31949 ft | 456 kts | 103° |
| 2026-05-08 11:19 | -6.49670 | 108.43007 | 32300 ft | 456 kts | 103° |
| 2026-05-08 11:19 | -6.50431 | 108.46099 | 32620 ft | 455 kts | 103° |
| 2026-05-08 11:20 | -6.51192 | 108.49191 | 32959 ft | 455 kts | 103° |
| 2026-05-08 11:20 | -6.51955 | 108.52277 | 33285 ft | 455 kts | 103° |
| 2026-05-08 11:20 | -6.52720 | 108.55360 | 33593 ft | 454 kts | 103° |
| 2026-05-08 11:20 | -6.53484 | 108.58440 | 33894 ft | 454 kts | 103° |
| 2026-05-08 11:21 | -6.54246 | 108.61518 | 34182 ft | 454 kts | 103° |
| 2026-05-08 11:21 | -6.55006 | 108.64596 | 34470 ft | 453 kts | 103° |
| 2026-05-08 11:21 | -6.55764 | 108.67672 | 34741 ft | 453 kts | 103° |
| 2026-05-08 11:22 | -6.57274 | 108.73815 | 34839 ft | 451 kts | 103° |
| 2026-05-08 11:22 | -6.58775 | 108.79916 | 34839 ft | 457 kts | 103° |
| 2026-05-08 11:23 | -6.60319 | 108.86161 | 34837 ft | 462 kts | 103° |
| 2026-05-08 11:23 | -6.61876 | 108.92447 | 34837 ft | 463 kts | 103° |
| 2026-05-08 11:24 | -6.63426 | 108.98735 | 34839 ft | 464 kts | 103° |
| 2026-05-08 11:24 | -6.64973 | 109.05031 | 34838 ft | 463 kts | 103° |
| 2026-05-08 11:25 | -6.66515 | 109.11325 | 34842 ft | 464 kts | 103° |
| 2026-05-08 11:25 | -6.68060 | 109.17624 | 34845 ft | 464 kts | 103° |
| 2026-05-08 11:26 | -6.69604 | 109.23923 | 34847 ft | 464 kts | 103° |
| 2026-05-08 11:26 | -6.71154 | 109.30221 | 34848 ft | 464 kts | 103° |
| 2026-05-08 11:27 | -6.72705 | 109.36525 | 34849 ft | 464 kts | 103° |
| 2026-05-08 11:27 | -6.74250 | 109.42825 | 34850 ft | 464 kts | 103° |
| 2026-05-08 11:28 | -6.75795 | 109.49128 | 34850 ft | 464 kts | 103° |
| 2026-05-08 11:28 | -6.77326 | 109.55393 | 34850 ft | 464 kts | 103° |
| 2026-05-08 11:29 | -6.78871 | 109.61695 | 34849 ft | 464 kts | 103° |
| 2026-05-08 11:29 | -6.80415 | 109.67999 | 34849 ft | 464 kts | 103° |
| 2026-05-08 11:30 | -6.81958 | 109.74310 | 34849 ft | 464 kts | 103° |
| 2026-05-08 11:30 | -6.83496 | 109.80616 | 34850 ft | 464 kts | 103° |
| 2026-05-08 11:31 | -6.85036 | 109.86931 | 34850 ft | 464 kts | 103° |
| 2026-05-08 11:31 | -6.85693 | 109.89626 | 34850 ft | 464 kts | 103° |
| 2026-05-08 11:32 | -6.87227 | 109.95954 | 34850 ft | 464 kts | 103° |
| 2026-05-08 11:32 | -6.88761 | 110.02222 | 34850 ft | 464 kts | 103° |
| 2026-05-08 11:33 | -6.90304 | 110.08535 | 34851 ft | 464 kts | 103° |
| 2026-05-08 11:33 | -6.91844 | 110.14845 | 34851 ft | 464 kts | 103° |
| 2026-05-08 11:34 | -6.93378 | 110.21161 | 34847 ft | 465 kts | 103° |
| 2026-05-08 11:34 | -6.94650 | 110.26418 | 34837 ft | 465 kts | 103° |
| 2026-05-08 11:35 | -6.96181 | 110.32751 | 34835 ft | 466 kts | 103° |
| 2026-05-08 11:35 | -6.97513 | 110.40204 | 34833 ft | 466 kts | 91° |
| 2026-05-08 11:36 | -6.97630 | 110.46732 | 34838 ft | 467 kts | 91° |
| 2026-05-08 11:36 | -6.97732 | 110.52158 | 34841 ft | 467 kts | 91° |
| 2026-05-08 11:37 | -6.97854 | 110.58696 | 34844 ft | 467 kts | 91° |
| 2026-05-08 11:37 | -6.97974 | 110.65237 | 34845 ft | 467 kts | 91° |
| 2026-05-08 11:38 | -6.98085 | 110.71775 | 34848 ft | 467 kts | 91° |
| 2026-05-08 11:38 | -6.98192 | 110.78315 | 34848 ft | 467 kts | 91° |
| 2026-05-08 11:39 | -6.98304 | 110.84856 | 34846 ft | 468 kts | 91° |
| 2026-05-08 11:39 | -6.98364 | 110.88132 | 34598 ft | 471 kts | 91° |
| 2026-05-08 11:39 | -6.98424 | 110.91433 | 33913 ft | 471 kts | 91° |
| 2026-05-08 11:39 | -6.98480 | 110.94726 | 33238 ft | 471 kts | 91° |
| 2026-05-08 11:40 | -6.98534 | 110.98021 | 32587 ft | 471 kts | 91° |
| 2026-05-08 11:40 | -6.98588 | 111.01317 | 31933 ft | 470 kts | 91° |
| 2026-05-08 11:40 | -6.98641 | 111.04598 | 31294 ft | 468 kts | 91° |
| 2026-05-08 11:40 | -6.98697 | 111.07858 | 30644 ft | 465 kts | 91° |
| 2026-05-08 11:41 | -6.98753 | 111.11105 | 29996 ft | 463 kts | 91° |
| 2026-05-08 11:41 | -6.98809 | 111.14333 | 29345 ft | 460 kts | 91° |
| 2026-05-08 11:41 | -6.98865 | 111.17543 | 28694 ft | 457 kts | 91° |
| 2026-05-08 11:41 | -6.98921 | 111.20689 | 28053 ft | 455 kts | 91° |
| 2026-05-08 11:42 | -6.98976 | 111.23861 | 27402 ft | 452 kts | 91° |
| 2026-05-08 11:42 | -6.99028 | 111.27012 | 26752 ft | 449 kts | 91° |
| 2026-05-08 11:42 | -6.99077 | 111.30149 | 26100 ft | 447 kts | 91° |
| 2026-05-08 11:42 | -6.99125 | 111.33266 | 25449 ft | 444 kts | 91° |
| 2026-05-08 11:43 | -6.99171 | 111.36360 | 24798 ft | 441 kts | 91° |
| 2026-05-08 11:43 | -6.99217 | 111.39441 | 24147 ft | 439 kts | 91° |
| 2026-05-08 11:43 | -6.99467 | 111.42485 | 23492 ft | 436 kts | 101° |
| 2026-05-08 11:43 | -7.00248 | 111.45417 | 22844 ft | 433 kts | 106° |
| 2026-05-08 11:44 | -7.01080 | 111.48318 | 22189 ft | 430 kts | 106° |
| 2026-05-08 11:44 | -7.01904 | 111.51209 | 21541 ft | 428 kts | 106° |
| 2026-05-08 11:44 | -7.02722 | 111.54084 | 20890 ft | 426 kts | 106° |
| 2026-05-08 11:44 | -7.03536 | 111.56947 | 20239 ft | 424 kts | 106° |
| 2026-05-08 11:45 | -7.04345 | 111.59795 | 19587 ft | 422 kts | 106° |
| 2026-05-08 11:45 | -7.05146 | 111.62629 | 18936 ft | 420 kts | 106° |
| 2026-05-08 11:45 | -7.05942 | 111.65455 | 18281 ft | 418 kts | 106° |
| 2026-05-08 11:45 | -7.06734 | 111.68266 | 17632 ft | 417 kts | 106° |
| 2026-05-08 11:46 | -7.07523 | 111.71069 | 16969 ft | 416 kts | 106° |
| 2026-05-08 11:46 | -7.08312 | 111.73864 | 16328 ft | 414 kts | 106° |
| 2026-05-08 11:46 | -7.09102 | 111.76649 | 15683 ft | 413 kts | 106° |
| 2026-05-08 11:46 | -7.09890 | 111.79420 | 15022 ft | 410 kts | 106° |
| 2026-05-08 11:47 | -7.10674 | 111.82173 | 14373 ft | 408 kts | 106° |
| 2026-05-08 11:47 | -7.11450 | 111.84909 | 13718 ft | 405 kts | 106° |
| 2026-05-08 11:47 | -7.12216 | 111.87626 | 13070 ft | 402 kts | 106° |
| 2026-05-08 11:47 | -7.12975 | 111.90322 | 12419 ft | 398 kts | 106° |
| 2026-05-08 11:48 | -7.13718 | 111.92953 | 11774 ft | 394 kts | 106° |
| 2026-05-08 11:48 | -7.14463 | 111.95586 | 11198 ft | 388 kts | 106° |
| 2026-05-08 11:48 | -7.15187 | 111.98147 | 11004 ft | 372 kts | 106° |
| 2026-05-08 11:48 | -7.15968 | 112.00549 | 11001 ft | 351 kts | 113° |
| 2026-05-08 11:49 | -7.16910 | 112.02742 | 11004 ft | 333 kts | 114° |
| 2026-05-08 11:49 | -7.17804 | 112.04834 | 11005 ft | 317 kts | 113° |
| 2026-05-08 11:49 | -7.18653 | 112.06822 | 11004 ft | 302 kts | 113° |
| 2026-05-08 11:49 | -7.19466 | 112.08724 | 11004 ft | 288 kts | 113° |
| 2026-05-08 11:50 | -7.20248 | 112.10550 | 10799 ft | 283 kts | 114° |
| 2026-05-08 11:50 | -7.21028 | 112.12374 | 10417 ft | 284 kts | 113° |
| 2026-05-08 11:50 | -7.21810 | 112.14204 | 10043 ft | 285 kts | 114° |
| 2026-05-08 11:50 | -7.22583 | 112.16015 | 9673 ft | 286 kts | 113° |
| 2026-05-08 11:51 | -7.23370 | 112.17861 | 9296 ft | 287 kts | 113° |
| 2026-05-08 11:51 | -7.24157 | 112.19710 | 8919 ft | 288 kts | 114° |
| 2026-05-08 11:51 | -7.24949 | 112.21565 | 8542 ft | 288 kts | 114° |
| 2026-05-08 11:51 | -7.25741 | 112.23418 | 8162 ft | 289 kts | 114° |
| 2026-05-08 11:52 | -7.26538 | 112.25280 | 7785 ft | 289 kts | 114° |
| 2026-05-08 11:52 | -7.27334 | 112.27141 | 7411 ft | 289 kts | 114° |
| 2026-05-08 11:52 | -7.28128 | 112.29000 | 7038 ft | 289 kts | 114° |
| 2026-05-08 11:52 | -7.28921 | 112.30855 | 6666 ft | 289 kts | 114° |
| 2026-05-08 11:53 | -7.29666 | 112.32700 | 6277 ft | 284 kts | 107° |
| 2026-05-08 11:53 | -7.30076 | 112.34610 | 5907 ft | 277 kts | 102° |
| 2026-05-08 11:53 | -7.30457 | 112.36513 | 5531 ft | 278 kts | 102° |
| 2026-05-08 11:53 | -7.30844 | 112.38425 | 5153 ft | 279 kts | 102° |
| 2026-05-08 11:54 | -7.31225 | 112.40308 | 4768 ft | 270 kts | 102° |
| 2026-05-08 11:54 | -7.31590 | 112.42126 | 4391 ft | 261 kts | 102° |
| 2026-05-08 11:54 | -7.31944 | 112.43889 | 4004 ft | 253 kts | 102° |
| 2026-05-08 11:54 | -7.32289 | 112.45601 | 3640 ft | 248 kts | 102° |
| 2026-05-08 11:55 | -7.32628 | 112.47288 | 3473 ft | 241 kts | 101° |
| 2026-05-08 11:55 | -7.32956 | 112.48901 | 3460 ft | 229 kts | 103° |
| 2026-05-08 11:55 | -7.33280 | 112.50440 | 3489 ft | 223 kts | 102° |
| 2026-05-08 11:55 | -7.33586 | 112.51970 | 3499 ft | 223 kts | 102° |
| 2026-05-08 11:56 | -7.33890 | 112.53501 | 3510 ft | 223 kts | 101° |
| 2026-05-08 11:56 | -7.34178 | 112.55042 | 3354 ft | 224 kts | 100° |
| 2026-05-08 11:56 | -7.34429 | 112.56577 | 3135 ft | 221 kts | 99° |
| 2026-05-08 11:56 | -7.34669 | 112.58105 | 2921 ft | 220 kts | 99° |
| 2026-05-08 11:57 | -7.34906 | 112.59619 | 2725 ft | 218 kts | 99° |
| 2026-05-08 11:57 | -7.35137 | 112.61113 | 2566 ft | 213 kts | 99° |
| 2026-05-08 11:57 | -7.35366 | 112.62563 | 2429 ft | 206 kts | 100° |
| 2026-05-08 11:57 | -7.35591 | 112.63956 | 2327 ft | 197 kts | 98° |
| 2026-05-08 11:58 | -7.35805 | 112.65269 | 2281 ft | 181 kts | 99° |
| 2026-05-08 11:58 | -7.35999 | 112.66465 | 2112 ft | 169 kts | 98° |
| 2026-05-08 11:58 | -7.36185 | 112.67606 | 1941 ft | 162 kts | 99° |
| 2026-05-08 11:59 | -7.36533 | 112.69784 | 1523 ft | 150 kts | 99° |
| 2026-05-08 11:59 | -7.36700 | 112.70790 | 1345 ft | 144 kts | 100° |
| 2026-05-08 11:59 | -7.36829 | 112.71766 | 1148 ft | 139 kts | 90° |
| 2026-05-08 11:59 | -7.36995 | 112.72727 | 934 ft | 139 kts | 107° |
| 2026-05-08 12:00 | -7.37171 | 112.73675 | 778 ft | 138 kts | 96° |
| 2026-05-08 12:00 | -7.37313 | 112.74626 | 582 ft | 137 kts | 100° |
| 2026-05-08 12:00 | -7.37483 | 112.75571 | 414 ft | 137 kts | 98° |
| 2026-05-08 12:00 | -7.37632 | 112.76521 | 210 ft | 138 kts | 98° |
| 2026-05-08 12:01 | -7.37787 | 112.77473 | 31 ft | 138 kts | 99° |
| 2026-05-08 12:01 | -7.37923 | 112.78324 | 9 ft | 103 kts | 99° |
| 2026-05-08 12:01 | -7.38011 | 112.78868 | 9 ft | 57 kts | 99° |
| 2026-05-08 12:01 | -7.38050 | 112.79111 | 11 ft | 16 kts | 97° |
| 2026-05-08 12:02 | -7.38045 | 112.79230 | 11 ft | 18 kts | 78° |
| 2026-05-08 12:02 | -7.38007 | 112.79334 | 11 ft | 15 kts | 68° |
| 2026-05-08 12:02 | -7.37972 | 112.79403 | 10 ft | 9 kts | 40° |
| 2026-05-08 12:02 | -7.37904 | 112.79417 | 9 ft | 11 kts | 7° |
| 2026-05-08 12:03 | -7.37816 | 112.79430 | 9 ft | 14 kts | 9° |
| 2026-05-08 12:03 | -7.37726 | 112.79445 | 9 ft | 10 kts | 9° |
| 2026-05-08 12:03 | -7.37683 | 112.79472 | 9 ft | 8 kts | 70° |
| 2026-05-08 12:03 | -7.37691 | 112.79533 | 10 ft | 10 kts | 100° |
| 2026-05-08 12:04 | -7.37705 | 112.79613 | 9 ft | 11 kts | 99° |
| 2026-05-08 12:04 | -7.37714 | 112.79673 | 9 ft | 1 kts | 98° |
| 2026-05-08 12:04 | -7.37715 | 112.79686 | 9 ft | 3 kts | 86° |
| 2026-05-08 12:04 | -7.37694 | 112.79699 | 9 ft | 5 kts | 12° |
| 2026-05-08 12:05 | -7.37657 | 112.79704 | 9 ft | 6 kts | 8° |
| 2026-05-08 12:05 | -7.37630 | 112.79708 | 9 ft | 3 kts | 9° |
| 2026-05-08 12:05 | -7.37626 | 112.79709 | 9 ft | 0 kts | 9° |